sensor_id;sensor_type;location;lat;lon;timestamp;P1;durP1;ratioP1;P2;durP2;ratioP2
44989;SDS011;30723;51.206;3.326;2023-02-28T00:01:37;12.02;;;5.43;;
44989;SDS011;30723;51.206;3.326;2023-02-28T00:04:04;7.13;;;5.13;;
44989;SDS011;30723;51.206;3.326;2023-02-28T00:06:30;13.13;;;5.68;;
44989;SDS011;30723;51.206;3.326;2023-02-28T00:08:57;9.07;;;5.50;;
44989;SDS011;30723;51.206;3.326;2023-02-28T00:11:23;8.45;;;5.55;;
44989;SDS011;30723;51.206;3.326;2023-02-28T00:13:50;11.13;;;5.95;;
44989;SDS011;30723;51.206;3.326;2023-02-28T00:16:17;11.48;;;6.10;;
44989;SDS011;30723;51.206;3.326;2023-02-28T00:18:46;9.60;;;6.07;;
44989;SDS011;30723;51.206;3.326;2023-02-28T00:21:13;8.50;;;5.68;;
44989;SDS011;30723;51.206;3.326;2023-02-28T00:23:40;9.60;;;6.15;;
44989;SDS011;30723;51.206;3.326;2023-02-28T00:26:05;15.30;;;7.10;;
44989;SDS011;30723;51.206;3.326;2023-02-28T00:28:32;15.50;;;7.00;;
44989;SDS011;30723;51.206;3.326;2023-02-28T00:30:59;12.77;;;6.50;;
44989;SDS011;30723;51.206;3.326;2023-02-28T00:33:27;9.07;;;6.30;;
44989;SDS011;30723;51.206;3.326;2023-02-28T00:36:07;13.05;;;6.88;;
44989;SDS011;30723;51.206;3.326;2023-02-28T00:38:48;16.63;;;8.13;;
44989;SDS011;30723;51.206;3.326;2023-02-28T00:41:15;25.67;;;10.45;;
44989;SDS011;30723;51.206;3.326;2023-02-28T00:43:42;20.52;;;10.05;;
44989;SDS011;30723;51.206;3.326;2023-02-28T00:46:09;18.38;;;9.00;;
44989;SDS011;30723;51.206;3.326;2023-02-28T00:48:35;18.42;;;7.72;;
44989;SDS011;30723;51.206;3.326;2023-02-28T00:51:04;14.82;;;7.70;;
44989;SDS011;30723;51.206;3.326;2023-02-28T00:53:30;15.70;;;8.30;;
44989;SDS011;30723;51.206;3.326;2023-02-28T00:56:00;13.73;;;7.60;;
44989;SDS011;30723;51.206;3.326;2023-02-28T00:58:27;14.88;;;7.63;;
44989;SDS011;30723;51.206;3.326;2023-02-28T01:00:54;10.13;;;6.38;;
44989;SDS011;30723;51.206;3.326;2023-02-28T01:03:21;10.35;;;6.57;;
44989;SDS011;30723;51.206;3.326;2023-02-28T01:05:47;16.88;;;7.45;;
44989;SDS011;30723;51.206;3.326;2023-02-28T01:08:15;10.77;;;6.30;;
44989;SDS011;30723;51.206;3.326;2023-02-28T01:10:41;7.95;;;5.97;;
44989;SDS011;30723;51.206;3.326;2023-02-28T01:13:08;12.63;;;6.35;;
44989;SDS011;30723;51.206;3.326;2023-02-28T01:15:34;9.82;;;6.38;;
44989;SDS011;30723;51.206;3.326;2023-02-28T01:18:01;8.98;;;5.90;;
44989;SDS011;30723;51.206;3.326;2023-02-28T01:20:27;11.05;;;6.22;;
44989;SDS011;30723;51.206;3.326;2023-02-28T01:22:54;7.55;;;5.60;;
44989;SDS011;30723;51.206;3.326;2023-02-28T01:25:21;15.07;;;6.72;;
44989;SDS011;30723;51.206;3.326;2023-02-28T01:27:46;8.98;;;5.93;;
44989;SDS011;30723;51.206;3.326;2023-02-28T01:30:12;11.27;;;6.15;;
44989;SDS011;30723;51.206;3.326;2023-02-28T01:32:38;14.50;;;6.55;;
44989;SDS011;30723;51.206;3.326;2023-02-28T01:35:04;11.45;;;6.43;;
44989;SDS011;30723;51.206;3.326;2023-02-28T01:37:30;10.90;;;6.57;;
44989;SDS011;30723;51.206;3.326;2023-02-28T01:39:55;12.52;;;6.63;;
44989;SDS011;30723;51.206;3.326;2023-02-28T01:42:21;16.15;;;6.70;;
44989;SDS011;30723;51.206;3.326;2023-02-28T01:47:54;11.68;;;7.28;;
44989;SDS011;30723;51.206;3.326;2023-02-28T01:50:24;11.52;;;7.25;;
44989;SDS011;30723;51.206;3.326;2023-02-28T01:52:54;17.88;;;7.57;;
44989;SDS011;30723;51.206;3.326;2023-02-28T01:55:43;13.85;;;7.03;;
44989;SDS011;30723;51.206;3.326;2023-02-28T01:58:31;11.90;;;6.95;;
44989;SDS011;30723;51.206;3.326;2023-02-28T02:01:18;11.55;;;7.15;;
44989;SDS011;30723;51.206;3.326;2023-02-28T02:04:03;9.95;;;6.78;;
44989;SDS011;30723;51.206;3.326;2023-02-28T02:06:51;11.23;;;6.97;;
44989;SDS011;30723;51.206;3.326;2023-02-28T02:09:38;9.25;;;7.00;;
44989;SDS011;30723;51.206;3.326;2023-02-28T02:12:07;11.68;;;7.15;;
44989;SDS011;30723;51.206;3.326;2023-02-28T02:17:56;9.68;;;7.22;;
44989;SDS011;30723;51.206;3.326;2023-02-28T02:20:51;9.65;;;7.53;;
44989;SDS011;30723;51.206;3.326;2023-02-28T02:29:18;13.02;;;7.72;;
44989;SDS011;30723;51.206;3.326;2023-02-28T02:39:59;13.68;;;8.05;;
44989;SDS011;30723;51.206;3.326;2023-02-28T02:42:45;13.10;;;8.15;;
44989;SDS011;30723;51.206;3.326;2023-02-28T02:45:17;11.48;;;7.93;;
44989;SDS011;30723;51.206;3.326;2023-02-28T02:48:02;11.70;;;8.55;;
44989;SDS011;30723;51.206;3.326;2023-02-28T02:50:33;10.50;;;8.38;;
44989;SDS011;30723;51.206;3.326;2023-02-28T02:53:04;11.93;;;7.85;;
44989;SDS011;30723;51.206;3.326;2023-02-28T02:55:34;12.65;;;8.77;;
44989;SDS011;30723;51.206;3.326;2023-02-28T03:00:34;20.75;;;9.18;;
44989;SDS011;30723;51.206;3.326;2023-02-28T03:03:09;16.45;;;9.95;;
44989;SDS011;30723;51.206;3.326;2023-02-28T03:05:47;23.02;;;9.80;;
44989;SDS011;30723;51.206;3.326;2023-02-28T03:08:15;17.23;;;11.15;;
44989;SDS011;30723;51.206;3.326;2023-02-28T03:10:46;22.23;;;12.20;;
44989;SDS011;30723;51.206;3.326;2023-02-28T03:16:16;20.45;;;11.20;;
44989;SDS011;30723;51.206;3.326;2023-02-28T03:26:51;17.88;;;10.55;;
44989;SDS011;30723;51.206;3.326;2023-02-28T03:29:39;26.55;;;11.80;;
44989;SDS011;30723;51.206;3.326;2023-02-28T03:32:29;18.05;;;10.70;;
44989;SDS011;30723;51.206;3.326;2023-02-28T03:35:09;16.70;;;10.65;;
44989;SDS011;30723;51.206;3.326;2023-02-28T03:37:47;16.58;;;9.65;;
44989;SDS011;30723;51.206;3.326;2023-02-28T03:40:23;16.63;;;9.32;;
44989;SDS011;30723;51.206;3.326;2023-02-28T03:42:59;13.05;;;8.93;;
44989;SDS011;30723;51.206;3.326;2023-02-28T03:45:38;11.93;;;8.40;;
44989;SDS011;30723;51.206;3.326;2023-02-28T03:48:12;10.55;;;8.15;;
44989;SDS011;30723;51.206;3.326;2023-02-28T03:50:43;15.35;;;7.95;;
44989;SDS011;30723;51.206;3.326;2023-02-28T03:55:56;10.43;;;7.20;;
44989;SDS011;30723;51.206;3.326;2023-02-28T03:58:28;14.93;;;8.02;;
44989;SDS011;30723;51.206;3.326;2023-02-28T04:01:07;12.10;;;7.80;;
44989;SDS011;30723;51.206;3.326;2023-02-28T04:03:42;14.57;;;8.95;;
44989;SDS011;30723;51.206;3.326;2023-02-28T04:06:12;14.70;;;8.95;;
44989;SDS011;30723;51.206;3.326;2023-02-28T04:08:42;17.00;;;8.68;;
44989;SDS011;30723;51.206;3.326;2023-02-28T04:11:18;12.48;;;9.50;;
44989;SDS011;30723;51.206;3.326;2023-02-28T04:14:00;12.13;;;8.43;;
44989;SDS011;30723;51.206;3.326;2023-02-28T04:16:28;12.07;;;8.60;;
44989;SDS011;30723;51.206;3.326;2023-02-28T04:18:56;12.60;;;8.73;;
44989;SDS011;30723;51.206;3.326;2023-02-28T04:21:34;10.52;;;8.45;;
44989;SDS011;30723;51.206;3.326;2023-02-28T04:24:01;14.70;;;9.65;;
44989;SDS011;30723;51.206;3.326;2023-02-28T04:26:29;11.88;;;8.75;;
44989;SDS011;30723;51.206;3.326;2023-02-28T04:28:56;13.75;;;9.55;;
44989;SDS011;30723;51.206;3.326;2023-02-28T04:31:23;14.88;;;8.93;;
44989;SDS011;30723;51.206;3.326;2023-02-28T04:33:48;14.00;;;10.32;;
44989;SDS011;30723;51.206;3.326;2023-02-28T04:36:16;12.68;;;9.27;;
44989;SDS011;30723;51.206;3.326;2023-02-28T04:38:43;11.43;;;8.50;;
44989;SDS011;30723;51.206;3.326;2023-02-28T04:41:11;12.38;;;8.98;;
44989;SDS011;30723;51.206;3.326;2023-02-28T04:43:38;12.95;;;9.10;;
44989;SDS011;30723;51.206;3.326;2023-02-28T04:46:06;12.10;;;8.52;;
44989;SDS011;30723;51.206;3.326;2023-02-28T04:48:34;12.52;;;8.70;;
44989;SDS011;30723;51.206;3.326;2023-02-28T04:53:30;15.60;;;8.95;;
44989;SDS011;30723;51.206;3.326;2023-02-28T04:55:57;10.88;;;8.15;;
44989;SDS011;30723;51.206;3.326;2023-02-28T04:58:24;11.27;;;8.48;;
44989;SDS011;30723;51.206;3.326;2023-02-28T05:00:53;14.43;;;8.68;;
44989;SDS011;30723;51.206;3.326;2023-02-28T05:03:26;10.77;;;7.93;;
44989;SDS011;30723;51.206;3.326;2023-02-28T05:05:53;13.63;;;8.70;;
44989;SDS011;30723;51.206;3.326;2023-02-28T05:08:19;11.55;;;8.20;;
44989;SDS011;30723;51.206;3.326;2023-02-28T05:10:46;12.13;;;7.97;;
44989;SDS011;30723;51.206;3.326;2023-02-28T05:13:12;9.82;;;8.02;;
44989;SDS011;30723;51.206;3.326;2023-02-28T05:15:39;14.77;;;8.15;;
44989;SDS011;30723;51.206;3.326;2023-02-28T05:18:06;10.70;;;7.97;;
44989;SDS011;30723;51.206;3.326;2023-02-28T05:20:34;13.43;;;8.40;;
44989;SDS011;30723;51.206;3.326;2023-02-28T05:23:01;16.35;;;7.85;;
44989;SDS011;30723;51.206;3.326;2023-02-28T05:25:28;12.32;;;7.85;;
44989;SDS011;30723;51.206;3.326;2023-02-28T05:27:54;15.00;;;8.50;;
44989;SDS011;30723;51.206;3.326;2023-02-28T05:30:20;12.23;;;8.20;;
44989;SDS011;30723;51.206;3.326;2023-02-28T05:32:48;11.98;;;8.65;;
44989;SDS011;30723;51.206;3.326;2023-02-28T05:35:16;12.98;;;8.63;;
44989;SDS011;30723;51.206;3.326;2023-02-28T05:37:43;12.77;;;8.65;;
44989;SDS011;30723;51.206;3.326;2023-02-28T05:40:09;14.52;;;9.23;;
44989;SDS011;30723;51.206;3.326;2023-02-28T05:42:38;19.30;;;8.65;;
44989;SDS011;30723;51.206;3.326;2023-02-28T05:45:04;12.00;;;9.10;;
44989;SDS011;30723;51.206;3.326;2023-02-28T05:47:33;12.30;;;9.15;;
44989;SDS011;30723;51.206;3.326;2023-02-28T05:50:00;14.38;;;8.90;;
44989;SDS011;30723;51.206;3.326;2023-02-28T05:52:27;14.30;;;8.98;;
44989;SDS011;30723;51.206;3.326;2023-02-28T05:54:57;13.88;;;9.20;;
44989;SDS011;30723;51.206;3.326;2023-02-28T05:57:24;12.38;;;9.02;;
44989;SDS011;30723;51.206;3.326;2023-02-28T05:59:51;13.00;;;9.90;;
44989;SDS011;30723;51.206;3.326;2023-02-28T06:02:17;14.38;;;9.63;;
44989;SDS011;30723;51.206;3.326;2023-02-28T06:04:44;22.27;;;10.30;;
44989;SDS011;30723;51.206;3.326;2023-02-28T06:07:11;13.75;;;10.05;;
44989;SDS011;30723;51.206;3.326;2023-02-28T06:09:37;13.38;;;9.57;;
44989;SDS011;30723;51.206;3.326;2023-02-28T06:12:04;14.43;;;9.68;;
44989;SDS011;30723;51.206;3.326;2023-02-28T06:14:32;13.18;;;9.32;;
44989;SDS011;30723;51.206;3.326;2023-02-28T06:17:00;16.52;;;9.60;;
44989;SDS011;30723;51.206;3.326;2023-02-28T06:19:27;16.23;;;9.48;;
44989;SDS011;30723;51.206;3.326;2023-02-28T06:21:55;13.57;;;9.32;;
44989;SDS011;30723;51.206;3.326;2023-02-28T06:24:23;12.32;;;8.70;;
44989;SDS011;30723;51.206;3.326;2023-02-28T06:26:53;13.23;;;8.45;;
44989;SDS011;30723;51.206;3.326;2023-02-28T06:29:20;10.85;;;8.07;;
44989;SDS011;30723;51.206;3.326;2023-02-28T06:31:47;12.20;;;8.02;;
44989;SDS011;30723;51.206;3.326;2023-02-28T06:34:14;16.80;;;8.23;;
44989;SDS011;30723;51.206;3.326;2023-02-28T06:36:40;18.95;;;8.23;;
44989;SDS011;30723;51.206;3.326;2023-02-28T06:39:08;12.38;;;7.47;;
44989;SDS011;30723;51.206;3.326;2023-02-28T06:41:35;10.02;;;7.35;;
44989;SDS011;30723;51.206;3.326;2023-02-28T06:44:05;12.82;;;7.50;;
44989;SDS011;30723;51.206;3.326;2023-02-28T06:46:40;19.50;;;7.15;;
44989;SDS011;30723;51.206;3.326;2023-02-28T06:49:08;8.25;;;6.47;;
44989;SDS011;30723;51.206;3.326;2023-02-28T06:51:36;12.65;;;7.25;;
44989;SDS011;30723;51.206;3.326;2023-02-28T06:54:04;16.40;;;6.43;;
44989;SDS011;30723;51.206;3.326;2023-02-28T06:56:34;13.00;;;6.90;;
44989;SDS011;30723;51.206;3.326;2023-02-28T06:59:01;12.32;;;6.93;;
44989;SDS011;30723;51.206;3.326;2023-02-28T07:01:27;10.55;;;7.13;;
44989;SDS011;30723;51.206;3.326;2023-02-28T07:04:00;12.35;;;7.05;;
44989;SDS011;30723;51.206;3.326;2023-02-28T07:06:27;12.68;;;6.47;;
44989;SDS011;30723;51.206;3.326;2023-02-28T07:08:53;10.10;;;7.18;;
44989;SDS011;30723;51.206;3.326;2023-02-28T07:11:23;12.45;;;6.40;;
44989;SDS011;30723;51.206;3.326;2023-02-28T07:14:06;10.02;;;6.05;;
44989;SDS011;30723;51.206;3.326;2023-02-28T07:16:34;8.45;;;5.60;;
44989;SDS011;30723;51.206;3.326;2023-02-28T07:19:00;11.77;;;5.97;;
44989;SDS011;30723;51.206;3.326;2023-02-28T07:21:26;9.18;;;5.45;;
44989;SDS011;30723;51.206;3.326;2023-02-28T07:23:52;11.63;;;6.10;;
44989;SDS011;30723;51.206;3.326;2023-02-28T07:26:19;8.38;;;5.95;;
44989;SDS011;30723;51.206;3.326;2023-02-28T07:28:45;11.40;;;6.50;;
44989;SDS011;30723;51.206;3.326;2023-02-28T07:31:12;8.90;;;6.38;;
44989;SDS011;30723;51.206;3.326;2023-02-28T07:33:39;12.40;;;7.57;;
44989;SDS011;30723;51.206;3.326;2023-02-28T07:36:06;11.98;;;6.45;;
44989;SDS011;30723;51.206;3.326;2023-02-28T07:38:34;14.52;;;6.15;;
44989;SDS011;30723;51.206;3.326;2023-02-28T07:41:02;11.57;;;6.20;;
44989;SDS011;30723;51.206;3.326;2023-02-28T07:43:30;10.40;;;6.57;;
44989;SDS011;30723;51.206;3.326;2023-02-28T07:46:04;9.60;;;5.97;;
44989;SDS011;30723;51.206;3.326;2023-02-28T07:48:36;12.15;;;6.70;;
44989;SDS011;30723;51.206;3.326;2023-02-28T07:51:03;15.10;;;7.05;;
44989;SDS011;30723;51.206;3.326;2023-02-28T07:53:30;16.15;;;10.43;;
44989;SDS011;30723;51.206;3.326;2023-02-28T07:55:57;23.27;;;10.65;;
44989;SDS011;30723;51.206;3.326;2023-02-28T07:58:25;14.80;;;8.60;;
44989;SDS011;30723;51.206;3.326;2023-02-28T08:00:51;14.80;;;5.88;;
44989;SDS011;30723;51.206;3.326;2023-02-28T08:03:18;11.77;;;6.28;;
44989;SDS011;30723;51.206;3.326;2023-02-28T08:05:47;9.50;;;5.47;;
44989;SDS011;30723;51.206;3.326;2023-02-28T08:08:14;12.15;;;5.80;;
44989;SDS011;30723;51.206;3.326;2023-02-28T08:10:42;11.68;;;5.32;;
44989;SDS011;30723;51.206;3.326;2023-02-28T08:13:08;9.43;;;5.20;;
44989;SDS011;30723;51.206;3.326;2023-02-28T08:15:34;7.75;;;5.30;;
44989;SDS011;30723;51.206;3.326;2023-02-28T08:17:59;7.50;;;4.97;;
44989;SDS011;30723;51.206;3.326;2023-02-28T08:20:26;11.68;;;6.03;;
44989;SDS011;30723;51.206;3.326;2023-02-28T08:22:53;12.45;;;6.63;;
44989;SDS011;30723;51.206;3.326;2023-02-28T08:25:19;18.45;;;7.57;;
44989;SDS011;30723;51.206;3.326;2023-02-28T08:27:46;14.15;;;6.80;;
44989;SDS011;30723;51.206;3.326;2023-02-28T08:30:13;10.43;;;5.63;;
44989;SDS011;30723;51.206;3.326;2023-02-28T08:32:39;8.88;;;5.55;;
44989;SDS011;30723;51.206;3.326;2023-02-28T08:35:06;7.63;;;5.15;;
44989;SDS011;30723;51.206;3.326;2023-02-28T08:37:32;7.53;;;5.85;;
44989;SDS011;30723;51.206;3.326;2023-02-28T08:39:58;11.80;;;4.30;;
44989;SDS011;30723;51.206;3.326;2023-02-28T08:42:23;7.32;;;4.28;;
44989;SDS011;30723;51.206;3.326;2023-02-28T08:44:50;6.50;;;4.78;;
44989;SDS011;30723;51.206;3.326;2023-02-28T08:47:17;12.88;;;5.90;;
44989;SDS011;30723;51.206;3.326;2023-02-28T08:49:44;7.53;;;4.75;;
44989;SDS011;30723;51.206;3.326;2023-02-28T08:52:11;12.40;;;5.30;;
44989;SDS011;30723;51.206;3.326;2023-02-28T08:54:37;6.63;;;4.75;;
44989;SDS011;30723;51.206;3.326;2023-02-28T08:57:04;5.90;;;3.83;;
44989;SDS011;30723;51.206;3.326;2023-02-28T08:59:31;5.07;;;3.40;;
44989;SDS011;30723;51.206;3.326;2023-02-28T09:01:58;5.40;;;3.55;;
44989;SDS011;30723;51.206;3.326;2023-02-28T09:04:24;5.07;;;3.55;;
44989;SDS011;30723;51.206;3.326;2023-02-28T09:06:51;7.63;;;3.38;;
44989;SDS011;30723;51.206;3.326;2023-02-28T09:09:17;5.82;;;3.22;;
44989;SDS011;30723;51.206;3.326;2023-02-28T09:11:44;9.80;;;3.60;;
44989;SDS011;30723;51.206;3.326;2023-02-28T09:14:11;6.88;;;4.22;;
44989;SDS011;30723;51.206;3.326;2023-02-28T09:16:37;7.43;;;3.92;;
44989;SDS011;30723;51.206;3.326;2023-02-28T09:19:03;5.57;;;4.30;;
44989;SDS011;30723;51.206;3.326;2023-02-28T09:21:29;11.57;;;4.47;;
44989;SDS011;30723;51.206;3.326;2023-02-28T09:23:56;10.80;;;4.50;;
44989;SDS011;30723;51.206;3.326;2023-02-28T09:26:23;11.20;;;4.05;;
44989;SDS011;30723;51.206;3.326;2023-02-28T09:28:52;7.53;;;4.60;;
44989;SDS011;30723;51.206;3.326;2023-02-28T09:31:20;6.30;;;3.95;;
44989;SDS011;30723;51.206;3.326;2023-02-28T09:33:51;8.38;;;4.05;;
44989;SDS011;30723;51.206;3.326;2023-02-28T09:36:19;5.47;;;3.88;;
44989;SDS011;30723;51.206;3.326;2023-02-28T09:38:45;8.23;;;3.63;;
44989;SDS011;30723;51.206;3.326;2023-02-28T09:41:16;5.63;;;3.15;;
44989;SDS011;30723;51.206;3.326;2023-02-28T09:43:57;5.95;;;3.63;;
44989;SDS011;30723;51.206;3.326;2023-02-28T09:46:43;4.70;;;3.03;;
44989;SDS011;30723;51.206;3.326;2023-02-28T09:49:39;4.55;;;3.10;;
44989;SDS011;30723;51.206;3.326;2023-02-28T09:52:10;4.45;;;3.05;;
44989;SDS011;30723;51.206;3.326;2023-02-28T09:54:44;8.05;;;3.30;;
44989;SDS011;30723;51.206;3.326;2023-02-28T09:57:27;5.18;;;3.13;;
44989;SDS011;30723;51.206;3.326;2023-02-28T10:00:14;6.22;;;3.38;;
44989;SDS011;30723;51.206;3.326;2023-02-28T10:10:42;6.60;;;3.53;;
44989;SDS011;30723;51.206;3.326;2023-02-28T10:16:02;9.05;;;3.42;;
44989;SDS011;30723;51.206;3.326;2023-02-28T10:18:43;5.63;;;3.60;;
44989;SDS011;30723;51.206;3.326;2023-02-28T10:21:31;5.28;;;3.45;;
44989;SDS011;30723;51.206;3.326;2023-02-28T10:26:43;6.63;;;3.15;;
44989;SDS011;30723;51.206;3.326;2023-02-28T10:29:12;4.32;;;3.10;;
44989;SDS011;30723;51.206;3.326;2023-02-28T10:31:40;5.63;;;2.83;;
44989;SDS011;30723;51.206;3.326;2023-02-28T10:34:07;5.55;;;3.13;;
44989;SDS011;30723;51.206;3.326;2023-02-28T10:36:36;5.45;;;3.17;;
44989;SDS011;30723;51.206;3.326;2023-02-28T10:39:33;7.97;;;3.80;;
44989;SDS011;30723;51.206;3.326;2023-02-28T10:41:59;3.65;;;3.17;;
44989;SDS011;30723;51.206;3.326;2023-02-28T10:44:25;4.38;;;3.22;;
44989;SDS011;30723;51.206;3.326;2023-02-28T10:46:51;5.90;;;3.42;;
44989;SDS011;30723;51.206;3.326;2023-02-28T10:49:25;6.32;;;3.40;;
44989;SDS011;30723;51.206;3.326;2023-02-28T10:52:00;7.78;;;3.38;;
44989;SDS011;30723;51.206;3.326;2023-02-28T10:54:30;4.72;;;3.05;;
44989;SDS011;30723;51.206;3.326;2023-02-28T10:59:46;4.15;;;3.33;;
44989;SDS011;30723;51.206;3.326;2023-02-28T11:02:33;5.90;;;3.60;;
44989;SDS011;30723;51.206;3.326;2023-02-28T11:05:00;7.72;;;3.33;;
44989;SDS011;30723;51.206;3.326;2023-02-28T11:07:26;9.13;;;3.53;;
44989;SDS011;30723;51.206;3.326;2023-02-28T11:09:53;7.53;;;4.97;;
44989;SDS011;30723;51.206;3.326;2023-02-28T11:15:03;7.13;;;3.40;;
44989;SDS011;30723;51.206;3.326;2023-02-28T11:17:44;7.20;;;3.47;;
44989;SDS011;30723;51.206;3.326;2023-02-28T11:20:22;4.70;;;3.40;;
44989;SDS011;30723;51.206;3.326;2023-02-28T11:22:51;5.53;;;3.58;;
44989;SDS011;30723;51.206;3.326;2023-02-28T11:25:33;3.90;;;3.47;;
44989;SDS011;30723;51.206;3.326;2023-02-28T11:28:23;7.28;;;3.63;;
44989;SDS011;30723;51.206;3.326;2023-02-28T11:33:48;4.93;;;3.67;;
44989;SDS011;30723;51.206;3.326;2023-02-28T11:38:46;6.68;;;3.60;;
44989;SDS011;30723;51.206;3.326;2023-02-28T11:46:57;5.75;;;3.25;;
44989;SDS011;30723;51.206;3.326;2023-02-28T11:57:53;4.00;;;2.97;;
44989;SDS011;30723;51.206;3.326;2023-02-28T12:00:30;5.22;;;2.80;;
44989;SDS011;30723;51.206;3.326;2023-02-28T12:12:11;8.00;;;2.53;;
44989;SDS011;30723;51.206;3.326;2023-02-28T12:17:29;2.92;;;1.80;;
44989;SDS011;30723;51.206;3.326;2023-02-28T12:28:13;4.60;;;2.38;;
44989;SDS011;30723;51.206;3.326;2023-02-28T12:31:00;3.53;;;2.27;;
44989;SDS011;30723;51.206;3.326;2023-02-28T12:33:39;2.72;;;2.13;;
44989;SDS011;30723;51.206;3.326;2023-02-28T12:36:19;5.93;;;2.20;;
44989;SDS011;30723;51.206;3.326;2023-02-28T12:44:44;6.18;;;2.65;;
44989;SDS011;30723;51.206;3.326;2023-02-28T12:47:14;4.57;;;2.40;;
44989;SDS011;30723;51.206;3.326;2023-02-28T12:55:23;4.53;;;2.47;;
44989;SDS011;30723;51.206;3.326;2023-02-28T13:06:45;3.40;;;2.20;;
44989;SDS011;30723;51.206;3.326;2023-02-28T13:09:24;2.85;;;2.22;;
44989;SDS011;30723;51.206;3.326;2023-02-28T13:11:53;2.30;;;2.00;;
44989;SDS011;30723;51.206;3.326;2023-02-28T13:19:45;5.45;;;2.35;;
44989;SDS011;30723;51.206;3.326;2023-02-28T13:24:51;5.15;;;2.25;;
44989;SDS011;30723;51.206;3.326;2023-02-28T13:29:50;5.53;;;2.67;;
44989;SDS011;30723;51.206;3.326;2023-02-28T13:32:18;3.25;;;2.30;;
44989;SDS011;30723;51.206;3.326;2023-02-28T13:39:57;2.70;;;2.20;;
44989;SDS011;30723;51.206;3.326;2023-02-28T13:45:24;2.03;;;1.83;;
44989;SDS011;30723;51.206;3.326;2023-02-28T13:50:29;2.25;;;2.05;;
44989;SDS011;30723;51.206;3.326;2023-02-28T13:58:37;4.75;;;2.15;;
44989;SDS011;30723;51.206;3.326;2023-02-28T14:01:35;2.40;;;2.05;;
44989;SDS011;30723;51.206;3.326;2023-02-28T14:07:01;4.28;;;2.20;;
44989;SDS011;30723;51.206;3.326;2023-02-28T14:11:57;3.00;;;2.17;;
44989;SDS011;30723;51.206;3.326;2023-02-28T14:17:13;2.60;;;2.35;;
44989;SDS011;30723;51.206;3.326;2023-02-28T14:19:54;2.50;;;2.30;;
44989;SDS011;30723;51.206;3.326;2023-02-28T14:27:36;2.13;;;1.92;;
44989;SDS011;30723;51.206;3.326;2023-02-28T14:36:21;3.33;;;2.30;;
44989;SDS011;30723;51.206;3.326;2023-02-28T14:38:56;3.03;;;1.98;;
44989;SDS011;30723;51.206;3.326;2023-02-28T14:41:35;2.28;;;1.92;;
44989;SDS011;30723;51.206;3.326;2023-02-28T14:44:20;2.20;;;1.98;;
44989;SDS011;30723;51.206;3.326;2023-02-28T14:46:52;2.10;;;1.90;;
44989;SDS011;30723;51.206;3.326;2023-02-28T14:49:28;3.60;;;2.03;;
44989;SDS011;30723;51.206;3.326;2023-02-28T14:52:07;2.67;;;2.40;;
44989;SDS011;30723;51.206;3.326;2023-02-28T14:54:41;3.83;;;2.47;;
44989;SDS011;30723;51.206;3.326;2023-02-28T14:57:25;4.57;;;2.30;;
44989;SDS011;30723;51.206;3.326;2023-02-28T15:02:48;2.40;;;2.00;;
44989;SDS011;30723;51.206;3.326;2023-02-28T15:07:43;2.42;;;2.00;;
44989;SDS011;30723;51.206;3.326;2023-02-28T15:12:39;2.28;;;2.08;;
44989;SDS011;30723;51.206;3.326;2023-02-28T15:15:13;3.63;;;2.17;;
44989;SDS011;30723;51.206;3.326;2023-02-28T15:17:42;2.22;;;2.00;;
44989;SDS011;30723;51.206;3.326;2023-02-28T15:20:12;2.37;;;1.80;;
44989;SDS011;30723;51.206;3.326;2023-02-28T15:22:39;2.30;;;2.05;;
44989;SDS011;30723;51.206;3.326;2023-02-28T15:25:09;4.35;;;2.28;;
44989;SDS011;30723;51.206;3.326;2023-02-28T15:27:50;3.72;;;2.08;;
44989;SDS011;30723;51.206;3.326;2023-02-28T15:30:30;5.72;;;2.53;;
44989;SDS011;30723;51.206;3.326;2023-02-28T15:35:41;3.05;;;1.88;;
44989;SDS011;30723;51.206;3.326;2023-02-28T15:38:25;3.83;;;2.20;;
44989;SDS011;30723;51.206;3.326;2023-02-28T15:40:56;6.05;;;2.08;;
44989;SDS011;30723;51.206;3.326;2023-02-28T15:45:50;3.20;;;2.50;;
44989;SDS011;30723;51.206;3.326;2023-02-28T15:48:22;4.43;;;2.30;;
44989;SDS011;30723;51.206;3.326;2023-02-28T15:50:51;3.53;;;2.22;;
44989;SDS011;30723;51.206;3.326;2023-02-28T15:53:22;3.40;;;2.83;;
44989;SDS011;30723;51.206;3.326;2023-02-28T15:56:12;2.90;;;2.60;;
44989;SDS011;30723;51.206;3.326;2023-02-28T15:58:48;3.22;;;2.92;;
44989;SDS011;30723;51.206;3.326;2023-02-28T16:01:32;10.18;;;2.35;;
44989;SDS011;30723;51.206;3.326;2023-02-28T16:04:10;4.30;;;2.75;;
44989;SDS011;30723;51.206;3.326;2023-02-28T16:06:59;4.00;;;2.97;;
44989;SDS011;30723;51.206;3.326;2023-02-28T16:09:30;3.08;;;2.63;;
44989;SDS011;30723;51.206;3.326;2023-02-28T16:11:59;4.97;;;2.53;;
44989;SDS011;30723;51.206;3.326;2023-02-28T16:14:27;4.45;;;2.65;;
44989;SDS011;30723;51.206;3.326;2023-02-28T16:17:03;6.57;;;2.72;;
44989;SDS011;30723;51.206;3.326;2023-02-28T16:19:34;4.25;;;2.60;;
44989;SDS011;30723;51.206;3.326;2023-02-28T16:22:01;2.95;;;2.60;;
44989;SDS011;30723;51.206;3.326;2023-02-28T16:24:28;3.38;;;2.50;;
44989;SDS011;30723;51.206;3.326;2023-02-28T16:26:54;2.50;;;2.28;;
44989;SDS011;30723;51.206;3.326;2023-02-28T16:29:32;5.18;;;2.53;;
44989;SDS011;30723;51.206;3.326;2023-02-28T16:32:01;5.95;;;2.70;;
44989;SDS011;30723;51.206;3.326;2023-02-28T16:34:30;4.43;;;2.45;;
44989;SDS011;30723;51.206;3.326;2023-02-28T16:36:56;3.88;;;2.67;;
44989;SDS011;30723;51.206;3.326;2023-02-28T16:39:23;3.80;;;2.33;;
44989;SDS011;30723;51.206;3.326;2023-02-28T16:41:50;5.45;;;3.17;;
44989;SDS011;30723;51.206;3.326;2023-02-28T16:46:46;3.88;;;2.63;;
44989;SDS011;30723;51.206;3.326;2023-02-28T16:49:13;5.47;;;3.05;;
44989;SDS011;30723;51.206;3.326;2023-02-28T16:51:39;6.30;;;3.53;;
44989;SDS011;30723;51.206;3.326;2023-02-28T16:54:07;5.80;;;3.15;;
44989;SDS011;30723;51.206;3.326;2023-02-28T16:56:33;5.03;;;4.22;;
44989;SDS011;30723;51.206;3.326;2023-02-28T16:59:00;4.03;;;3.28;;
44989;SDS011;30723;51.206;3.326;2023-02-28T17:01:27;5.07;;;2.92;;
44989;SDS011;30723;51.206;3.326;2023-02-28T17:03:54;4.32;;;3.30;;
44989;SDS011;30723;51.206;3.326;2023-02-28T17:06:24;5.47;;;3.50;;
44989;SDS011;30723;51.206;3.326;2023-02-28T17:08:53;12.30;;;4.15;;
44989;SDS011;30723;51.206;3.326;2023-02-28T17:11:21;4.13;;;3.60;;
44989;SDS011;30723;51.206;3.326;2023-02-28T17:13:47;4.45;;;3.60;;
44989;SDS011;30723;51.206;3.326;2023-02-28T17:16:20;5.43;;;4.00;;
44989;SDS011;30723;51.206;3.326;2023-02-28T17:18:49;6.97;;;3.83;;
44989;SDS011;30723;51.206;3.326;2023-02-28T17:21:17;6.78;;;4.70;;
44989;SDS011;30723;51.206;3.326;2023-02-28T17:23:43;4.80;;;3.70;;
44989;SDS011;30723;51.206;3.326;2023-02-28T17:26:12;6.20;;;4.57;;
44989;SDS011;30723;51.206;3.326;2023-02-28T17:28:40;6.55;;;4.22;;
44989;SDS011;30723;51.206;3.326;2023-02-28T17:31:07;6.20;;;4.82;;
44989;SDS011;30723;51.206;3.326;2023-02-28T17:33:33;8.00;;;5.45;;
44989;SDS011;30723;51.206;3.326;2023-02-28T17:36:03;5.35;;;4.20;;
44989;SDS011;30723;51.206;3.326;2023-02-28T17:38:30;7.03;;;5.03;;
44989;SDS011;30723;51.206;3.326;2023-02-28T17:40:56;7.95;;;5.53;;
44989;SDS011;30723;51.206;3.326;2023-02-28T17:43:24;13.73;;;8.85;;
44989;SDS011;30723;51.206;3.326;2023-02-28T17:45:50;15.85;;;11.10;;
44989;SDS011;30723;51.206;3.326;2023-02-28T17:48:17;13.63;;;9.57;;
44989;SDS011;30723;51.206;3.326;2023-02-28T17:50:44;23.83;;;13.20;;
44989;SDS011;30723;51.206;3.326;2023-02-28T17:53:11;16.02;;;9.35;;
44989;SDS011;30723;51.206;3.326;2023-02-28T17:55:37;8.02;;;5.72;;
44989;SDS011;30723;51.206;3.326;2023-02-28T17:58:05;8.43;;;5.13;;
44989;SDS011;30723;51.206;3.326;2023-02-28T18:00:34;8.18;;;5.15;;